sensor_id;sensor_type;location;lat;lon;timestamp;P1;durP1;ratioP1;P2;durP2;ratioP2
79668;SDS011;69136;52.614;6.976;2023-12-04T00:02:03;23.38;;;10.07;;
79668;SDS011;69136;52.614;6.976;2023-12-04T00:04:46;21.10;;;9.60;;
79668;SDS011;69136;52.614;6.976;2023-12-04T00:07:31;21.58;;;9.52;;
79668;SDS011;69136;52.614;6.976;2023-12-04T00:10:15;24.73;;;10.10;;
79668;SDS011;69136;52.614;6.976;2023-12-04T00:12:59;24.67;;;10.98;;
79668;SDS011;69136;52.614;6.976;2023-12-04T00:15:44;22.05;;;10.50;;
79668;SDS011;69136;52.614;6.976;2023-12-04T00:18:28;19.15;;;9.85;;
79668;SDS011;69136;52.614;6.976;2023-12-04T00:21:12;24.45;;;10.30;;
79668;SDS011;69136;52.614;6.976;2023-12-04T00:23:56;22.33;;;10.77;;
79668;SDS011;69136;52.614;6.976;2023-12-04T00:26:40;23.48;;;10.27;;
79668;SDS011;69136;52.614;6.976;2023-12-04T00:29:24;23.83;;;9.73;;
79668;SDS011;69136;52.614;6.976;2023-12-04T00:32:08;22.88;;;10.07;;
79668;SDS011;69136;52.614;6.976;2023-12-04T00:34:52;24.33;;;10.40;;
79668;SDS011;69136;52.614;6.976;2023-12-04T00:37:36;22.15;;;10.02;;
79668;SDS011;69136;52.614;6.976;2023-12-04T00:40:22;22.15;;;9.90;;
79668;SDS011;69136;52.614;6.976;2023-12-04T00:43:07;23.38;;;10.80;;
79668;SDS011;69136;52.614;6.976;2023-12-04T00:45:50;27.27;;;10.43;;
79668;SDS011;69136;52.614;6.976;2023-12-04T00:48:34;25.17;;;10.18;;
79668;SDS011;69136;52.614;6.976;2023-12-04T00:51:18;23.42;;;10.55;;
79668;SDS011;69136;52.614;6.976;2023-12-04T00:54:02;25.17;;;10.13;;
79668;SDS011;69136;52.614;6.976;2023-12-04T00:56:46;21.15;;;10.18;;
79668;SDS011;69136;52.614;6.976;2023-12-04T00:59:31;22.10;;;9.77;;
79668;SDS011;69136;52.614;6.976;2023-12-04T01:02:15;24.60;;;9.73;;
79668;SDS011;69136;52.614;6.976;2023-12-04T01:05:00;24.42;;;11.15;;
79668;SDS011;69136;52.614;6.976;2023-12-04T01:07:44;20.85;;;9.90;;
79668;SDS011;69136;52.614;6.976;2023-12-04T01:10:28;21.25;;;9.40;;
79668;SDS011;69136;52.614;6.976;2023-12-04T01:13:13;24.75;;;10.25;;
79668;SDS011;69136;52.614;6.976;2023-12-04T01:15:57;22.40;;;9.55;;
79668;SDS011;69136;52.614;6.976;2023-12-04T01:18:41;24.25;;;11.00;;
79668;SDS011;69136;52.614;6.976;2023-12-04T01:21:25;22.30;;;9.77;;
79668;SDS011;69136;52.614;6.976;2023-12-04T01:24:10;24.50;;;9.73;;
79668;SDS011;69136;52.614;6.976;2023-12-04T01:26:54;21.67;;;9.02;;
79668;SDS011;69136;52.614;6.976;2023-12-04T01:29:38;21.67;;;9.23;;
79668;SDS011;69136;52.614;6.976;2023-12-04T01:32:22;23.25;;;9.73;;
79668;SDS011;69136;52.614;6.976;2023-12-04T01:35:06;24.10;;;10.20;;
79668;SDS011;69136;52.614;6.976;2023-12-04T01:37:51;23.52;;;9.32;;
79668;SDS011;69136;52.614;6.976;2023-12-04T01:40:35;23.92;;;9.68;;
79668;SDS011;69136;52.614;6.976;2023-12-04T01:43:19;19.65;;;8.63;;
79668;SDS011;69136;52.614;6.976;2023-12-04T01:46:04;22.98;;;9.95;;
79668;SDS011;69136;52.614;6.976;2023-12-04T01:48:48;21.25;;;8.93;;
79668;SDS011;69136;52.614;6.976;2023-12-04T01:51:32;19.98;;;8.10;;
79668;SDS011;69136;52.614;6.976;2023-12-04T01:54:17;23.17;;;9.07;;
79668;SDS011;69136;52.614;6.976;2023-12-04T01:57:02;23.13;;;8.90;;
79668;SDS011;69136;52.614;6.976;2023-12-04T01:59:47;22.05;;;8.98;;
79668;SDS011;69136;52.614;6.976;2023-12-04T02:02:31;18.20;;;8.30;;
79668;SDS011;69136;52.614;6.976;2023-12-04T02:05:16;20.15;;;8.98;;
79668;SDS011;69136;52.614;6.976;2023-12-04T02:08:00;22.48;;;9.52;;
79668;SDS011;69136;52.614;6.976;2023-12-04T02:10:45;19.55;;;8.23;;
79668;SDS011;69136;52.614;6.976;2023-12-04T02:13:29;19.73;;;8.82;;
79668;SDS011;69136;52.614;6.976;2023-12-04T02:16:14;20.85;;;9.05;;
79668;SDS011;69136;52.614;6.976;2023-12-04T02:18:58;18.92;;;9.45;;
79668;SDS011;69136;52.614;6.976;2023-12-04T02:21:42;21.65;;;9.23;;
79668;SDS011;69136;52.614;6.976;2023-12-04T02:24:27;22.27;;;9.68;;
79668;SDS011;69136;52.614;6.976;2023-12-04T02:27:18;19.33;;;7.80;;
79668;SDS011;69136;52.614;6.976;2023-12-04T02:30:05;22.02;;;10.02;;
79668;SDS011;69136;52.614;6.976;2023-12-04T02:32:50;20.50;;;8.05;;
79668;SDS011;69136;52.614;6.976;2023-12-04T02:35:35;21.80;;;9.77;;
79668;SDS011;69136;52.614;6.976;2023-12-04T02:38:20;17.27;;;9.07;;
79668;SDS011;69136;52.614;6.976;2023-12-04T02:41:04;25.38;;;10.35;;
79668;SDS011;69136;52.614;6.976;2023-12-04T02:43:49;23.08;;;9.88;;
79668;SDS011;69136;52.614;6.976;2023-12-04T02:46:33;22.10;;;9.90;;
79668;SDS011;69136;52.614;6.976;2023-12-04T02:49:18;20.83;;;9.40;;
79668;SDS011;69136;52.614;6.976;2023-12-04T02:52:02;21.90;;;9.07;;
79668;SDS011;69136;52.614;6.976;2023-12-04T02:54:47;23.48;;;9.40;;
79668;SDS011;69136;52.614;6.976;2023-12-04T02:57:31;19.20;;;9.52;;
79668;SDS011;69136;52.614;6.976;2023-12-04T03:00:15;18.20;;;8.10;;
79668;SDS011;69136;52.614;6.976;2023-12-04T03:02:59;20.63;;;8.90;;
79668;SDS011;69136;52.614;6.976;2023-12-04T03:05:43;19.40;;;9.30;;
79668;SDS011;69136;52.614;6.976;2023-12-04T03:08:27;18.85;;;8.75;;
79668;SDS011;69136;52.614;6.976;2023-12-04T03:11:11;19.50;;;8.93;;
79668;SDS011;69136;52.614;6.976;2023-12-04T03:13:56;21.27;;;9.02;;
79668;SDS011;69136;52.614;6.976;2023-12-04T03:16:40;19.55;;;9.18;;
79668;SDS011;69136;52.614;6.976;2023-12-04T03:19:24;18.77;;;9.07;;
79668;SDS011;69136;52.614;6.976;2023-12-04T03:22:08;18.13;;;9.10;;
79668;SDS011;69136;52.614;6.976;2023-12-04T03:24:52;20.13;;;9.27;;
79668;SDS011;69136;52.614;6.976;2023-12-04T03:27:36;20.27;;;10.45;;
79668;SDS011;69136;52.614;6.976;2023-12-04T03:30:20;20.60;;;8.73;;
79668;SDS011;69136;52.614;6.976;2023-12-04T03:33:05;19.30;;;9.23;;
79668;SDS011;69136;52.614;6.976;2023-12-04T03:35:49;21.58;;;9.32;;
79668;SDS011;69136;52.614;6.976;2023-12-04T03:38:33;18.17;;;8.20;;
79668;SDS011;69136;52.614;6.976;2023-12-04T03:41:17;23.15;;;9.60;;
79668;SDS011;69136;52.614;6.976;2023-12-04T03:44:02;19.95;;;8.85;;
79668;SDS011;69136;52.614;6.976;2023-12-04T03:46:46;21.48;;;9.43;;
79668;SDS011;69136;52.614;6.976;2023-12-04T03:49:30;20.63;;;9.38;;
79668;SDS011;69136;52.614;6.976;2023-12-04T03:52:14;16.38;;;8.25;;
79668;SDS011;69136;52.614;6.976;2023-12-04T03:54:58;19.33;;;8.10;;
79668;SDS011;69136;52.614;6.976;2023-12-04T03:57:42;17.77;;;8.82;;
79668;SDS011;69136;52.614;6.976;2023-12-04T04:00:26;18.05;;;7.75;;
79668;SDS011;69136;52.614;6.976;2023-12-04T04:03:10;16.23;;;8.20;;
79668;SDS011;69136;52.614;6.976;2023-12-04T04:05:54;17.42;;;8.50;;
79668;SDS011;69136;52.614;6.976;2023-12-04T04:08:38;19.05;;;8.20;;
79668;SDS011;69136;52.614;6.976;2023-12-04T04:11:23;16.50;;;7.82;;
79668;SDS011;69136;52.614;6.976;2023-12-04T04:14:07;19.67;;;8.77;;
79668;SDS011;69136;52.614;6.976;2023-12-04T04:16:50;19.27;;;8.13;;
79668;SDS011;69136;52.614;6.976;2023-12-04T04:19:34;21.40;;;9.27;;
79668;SDS011;69136;52.614;6.976;2023-12-04T04:22:19;18.10;;;8.75;;
79668;SDS011;69136;52.614;6.976;2023-12-04T04:25:05;19.27;;;8.55;;
79668;SDS011;69136;52.614;6.976;2023-12-04T04:27:50;18.63;;;8.75;;
79668;SDS011;69136;52.614;6.976;2023-12-04T04:30:34;18.42;;;8.40;;
79668;SDS011;69136;52.614;6.976;2023-12-04T04:33:19;20.50;;;8.38;;
79668;SDS011;69136;52.614;6.976;2023-12-04T04:36:03;19.70;;;9.60;;
79668;SDS011;69136;52.614;6.976;2023-12-04T04:38:47;19.63;;;9.13;;
79668;SDS011;69136;52.614;6.976;2023-12-04T04:41:31;19.08;;;8.38;;
79668;SDS011;69136;52.614;6.976;2023-12-04T04:44:16;19.58;;;9.82;;
79668;SDS011;69136;52.614;6.976;2023-12-04T04:47:00;19.10;;;9.20;;
79668;SDS011;69136;52.614;6.976;2023-12-04T04:49:44;19.33;;;7.75;;
79668;SDS011;69136;52.614;6.976;2023-12-04T04:52:29;19.05;;;8.13;;
79668;SDS011;69136;52.614;6.976;2023-12-04T04:55:13;18.67;;;8.95;;
79668;SDS011;69136;52.614;6.976;2023-12-04T04:57:58;17.98;;;8.13;;
79668;SDS011;69136;52.614;6.976;2023-12-04T05:00:43;16.20;;;7.68;;
79668;SDS011;69136;52.614;6.976;2023-12-04T05:03:27;19.17;;;8.80;;
79668;SDS011;69136;52.614;6.976;2023-12-04T05:06:11;18.50;;;7.90;;
79668;SDS011;69136;52.614;6.976;2023-12-04T05:08:55;22.55;;;10.55;;
79668;SDS011;69136;52.614;6.976;2023-12-04T05:11:40;17.88;;;8.25;;
79668;SDS011;69136;52.614;6.976;2023-12-04T05:14:24;17.75;;;8.73;;
79668;SDS011;69136;52.614;6.976;2023-12-04T05:17:10;16.98;;;8.15;;
79668;SDS011;69136;52.614;6.976;2023-12-04T05:19:55;18.55;;;9.32;;
79668;SDS011;69136;52.614;6.976;2023-12-04T05:22:39;19.17;;;8.80;;
79668;SDS011;69136;52.614;6.976;2023-12-04T05:25:23;19.70;;;8.60;;
79668;SDS011;69136;52.614;6.976;2023-12-04T05:28:08;22.42;;;8.93;;
79668;SDS011;69136;52.614;6.976;2023-12-04T05:30:52;17.83;;;8.05;;
79668;SDS011;69136;52.614;6.976;2023-12-04T05:33:37;20.10;;;8.32;;
79668;SDS011;69136;52.614;6.976;2023-12-04T05:36:21;19.50;;;8.32;;
79668;SDS011;69136;52.614;6.976;2023-12-04T05:39:05;19.30;;;9.00;;
79668;SDS011;69136;52.614;6.976;2023-12-04T05:41:50;18.88;;;9.32;;
79668;SDS011;69136;52.614;6.976;2023-12-04T05:44:34;16.52;;;8.40;;
79668;SDS011;69136;52.614;6.976;2023-12-04T05:47:18;18.42;;;8.27;;
79668;SDS011;69136;52.614;6.976;2023-12-04T05:50:02;18.05;;;8.57;;
79668;SDS011;69136;52.614;6.976;2023-12-04T05:52:47;22.50;;;8.82;;
79668;SDS011;69136;52.614;6.976;2023-12-04T05:55:32;18.60;;;8.52;;
79668;SDS011;69136;52.614;6.976;2023-12-04T05:58:15;16.45;;;8.10;;
79668;SDS011;69136;52.614;6.976;2023-12-04T06:00:59;21.65;;;9.07;;
79668;SDS011;69136;52.614;6.976;2023-12-04T06:03:44;19.08;;;8.20;;
79668;SDS011;69136;52.614;6.976;2023-12-04T06:06:28;19.55;;;9.13;;
79668;SDS011;69136;52.614;6.976;2023-12-04T06:09:12;13.82;;;7.70;;
79668;SDS011;69136;52.614;6.976;2023-12-04T06:11:56;17.73;;;8.75;;
79668;SDS011;69136;52.614;6.976;2023-12-04T06:14:41;15.05;;;7.38;;
79668;SDS011;69136;52.614;6.976;2023-12-04T06:17:26;17.13;;;7.88;;
79668;SDS011;69136;52.614;6.976;2023-12-04T06:20:10;20.23;;;8.18;;
79668;SDS011;69136;52.614;6.976;2023-12-04T06:22:55;16.80;;;7.85;;
79668;SDS011;69136;52.614;6.976;2023-12-04T06:25:39;16.50;;;8.55;;
79668;SDS011;69136;52.614;6.976;2023-12-04T06:31:08;17.45;;;7.93;;
79668;SDS011;69136;52.614;6.976;2023-12-04T06:33:53;20.10;;;8.20;;
79668;SDS011;69136;52.614;6.976;2023-12-04T06:36:38;21.00;;;9.00;;
79668;SDS011;69136;52.614;6.976;2023-12-04T06:39:24;18.05;;;7.88;;
79668;SDS011;69136;52.614;6.976;2023-12-04T06:42:10;18.10;;;9.27;;
79668;SDS011;69136;52.614;6.976;2023-12-04T06:44:55;20.05;;;8.90;;
79668;SDS011;69136;52.614;6.976;2023-12-04T06:47:40;18.10;;;7.78;;
79668;SDS011;69136;52.614;6.976;2023-12-04T06:50:25;16.25;;;7.93;;
79668;SDS011;69136;52.614;6.976;2023-12-04T06:53:09;19.80;;;8.32;;
79668;SDS011;69136;52.614;6.976;2023-12-04T06:58:37;19.02;;;7.82;;
79668;SDS011;69136;52.614;6.976;2023-12-04T07:01:21;19.05;;;8.07;;
79668;SDS011;69136;52.614;6.976;2023-12-04T07:04:06;16.27;;;8.13;;
79668;SDS011;69136;52.614;6.976;2023-12-04T07:06:53;19.25;;;8.82;;
79668;SDS011;69136;52.614;6.976;2023-12-04T07:09:38;17.70;;;8.20;;
79668;SDS011;69136;52.614;6.976;2023-12-04T07:12:22;16.73;;;8.20;;
79668;SDS011;69136;52.614;6.976;2023-12-04T07:15:06;19.92;;;8.75;;
79668;SDS011;69136;52.614;6.976;2023-12-04T07:17:51;15.43;;;7.60;;
79668;SDS011;69136;52.614;6.976;2023-12-04T07:20:35;16.08;;;7.80;;
79668;SDS011;69136;52.614;6.976;2023-12-04T07:23:19;16.55;;;7.68;;
79668;SDS011;69136;52.614;6.976;2023-12-04T07:26:03;17.75;;;7.82;;
79668;SDS011;69136;52.614;6.976;2023-12-04T07:28:48;16.38;;;7.10;;
79668;SDS011;69136;52.614;6.976;2023-12-04T07:31:32;17.23;;;8.00;;
79668;SDS011;69136;52.614;6.976;2023-12-04T07:34:31;14.20;;;7.78;;
79668;SDS011;69136;52.614;6.976;2023-12-04T07:37:15;16.85;;;7.78;;
79668;SDS011;69136;52.614;6.976;2023-12-04T07:39:59;19.27;;;7.70;;
79668;SDS011;69136;52.614;6.976;2023-12-04T07:42:44;14.23;;;6.60;;
79668;SDS011;69136;52.614;6.976;2023-12-04T07:45:32;17.77;;;7.10;;
79668;SDS011;69136;52.614;6.976;2023-12-04T07:48:16;12.88;;;6.60;;
79668;SDS011;69136;52.614;6.976;2023-12-04T07:51:00;11.82;;;6.35;;
79668;SDS011;69136;52.614;6.976;2023-12-04T07:53:45;15.50;;;7.57;;
79668;SDS011;69136;52.614;6.976;2023-12-04T07:56:28;13.80;;;6.70;;
79668;SDS011;69136;52.614;6.976;2023-12-04T07:59:13;15.00;;;7.03;;
79668;SDS011;69136;52.614;6.976;2023-12-04T08:01:58;14.40;;;7.03;;
79668;SDS011;69136;52.614;6.976;2023-12-04T08:04:42;12.95;;;6.30;;
79668;SDS011;69136;52.614;6.976;2023-12-04T08:07:27;13.88;;;6.78;;
79668;SDS011;69136;52.614;6.976;2023-12-04T08:10:11;14.65;;;7.18;;
79668;SDS011;69136;52.614;6.976;2023-12-04T08:12:56;12.65;;;6.45;;
79668;SDS011;69136;52.614;6.976;2023-12-04T08:15:40;13.85;;;6.65;;
79668;SDS011;69136;52.614;6.976;2023-12-04T08:18:24;13.43;;;6.40;;
79668;SDS011;69136;52.614;6.976;2023-12-04T08:21:08;12.50;;;5.95;;
79668;SDS011;69136;52.614;6.976;2023-12-04T08:23:52;12.10;;;6.75;;
79668;SDS011;69136;52.614;6.976;2023-12-04T08:26:37;10.35;;;5.78;;
79668;SDS011;69136;52.614;6.976;2023-12-04T08:29:21;15.02;;;6.53;;
79668;SDS011;69136;52.614;6.976;2023-12-04T08:32:05;11.93;;;6.25;;
79668;SDS011;69136;52.614;6.976;2023-12-04T08:34:50;14.13;;;6.82;;
79668;SDS011;69136;52.614;6.976;2023-12-04T08:37:34;13.45;;;6.57;;
79668;SDS011;69136;52.614;6.976;2023-12-04T08:40:18;12.60;;;7.03;;
79668;SDS011;69136;52.614;6.976;2023-12-04T08:43:03;14.05;;;7.43;;
79668;SDS011;69136;52.614;6.976;2023-12-04T08:45:47;10.30;;;5.10;;
79668;SDS011;69136;52.614;6.976;2023-12-04T08:48:31;12.77;;;5.20;;
79668;SDS011;69136;52.614;6.976;2023-12-04T08:51:16;12.23;;;5.80;;
79668;SDS011;69136;52.614;6.976;2023-12-04T08:54:01;10.75;;;5.28;;
79668;SDS011;69136;52.614;6.976;2023-12-04T08:56:44;12.88;;;5.95;;
79668;SDS011;69136;52.614;6.976;2023-12-04T08:59:29;11.93;;;5.97;;
79668;SDS011;69136;52.614;6.976;2023-12-04T09:02:13;11.90;;;5.75;;
79668;SDS011;69136;52.614;6.976;2023-12-04T09:04:57;13.48;;;6.25;;
79668;SDS011;69136;52.614;6.976;2023-12-04T09:07:42;10.65;;;5.72;;
79668;SDS011;69136;52.614;6.976;2023-12-04T09:10:26;10.52;;;5.38;;
79668;SDS011;69136;52.614;6.976;2023-12-04T09:13:11;9.73;;;5.57;;
79668;SDS011;69136;52.614;6.976;2023-12-04T09:15:55;10.80;;;5.25;;
79668;SDS011;69136;52.614;6.976;2023-12-04T09:18:40;11.95;;;5.50;;
79668;SDS011;69136;52.614;6.976;2023-12-04T09:21:24;10.27;;;5.25;;
79668;SDS011;69136;52.614;6.976;2023-12-04T09:24:09;11.40;;;5.57;;
79668;SDS011;69136;52.614;6.976;2023-12-04T09:26:53;10.85;;;5.35;;
79668;SDS011;69136;52.614;6.976;2023-12-04T09:29:37;13.45;;;5.50;;
79668;SDS011;69136;52.614;6.976;2023-12-04T09:32:21;16.13;;;5.25;;
79668;SDS011;69136;52.614;6.976;2023-12-04T09:35:06;10.00;;;5.28;;
79668;SDS011;69136;52.614;6.976;2023-12-04T09:37:51;10.07;;;5.43;;
79668;SDS011;69136;52.614;6.976;2023-12-04T09:40:35;10.82;;;5.15;;
79668;SDS011;69136;52.614;6.976;2023-12-04T09:43:19;13.05;;;5.53;;
79668;SDS011;69136;52.614;6.976;2023-12-04T09:46:04;10.45;;;4.88;;
79668;SDS011;69136;52.614;6.976;2023-12-04T09:48:48;9.32;;;4.78;;
79668;SDS011;69136;52.614;6.976;2023-12-04T09:51:32;10.35;;;4.75;;
79668;SDS011;69136;52.614;6.976;2023-12-04T09:54:17;11.40;;;5.32;;
79668;SDS011;69136;52.614;6.976;2023-12-04T09:57:03;12.57;;;4.97;;
79668;SDS011;69136;52.614;6.976;2023-12-04T09:59:48;8.90;;;4.65;;
79668;SDS011;69136;52.614;6.976;2023-12-04T10:02:33;10.95;;;5.35;;
79668;SDS011;69136;52.614;6.976;2023-12-04T10:05:17;8.30;;;4.45;;
79668;SDS011;69136;52.614;6.976;2023-12-04T10:08:01;10.70;;;5.18;;
79668;SDS011;69136;52.614;6.976;2023-12-04T10:10:46;10.48;;;5.72;;
79668;SDS011;69136;52.614;6.976;2023-12-04T10:13:30;10.77;;;5.53;;
79668;SDS011;69136;52.614;6.976;2023-12-04T10:16:14;8.90;;;5.20;;
79668;SDS011;69136;52.614;6.976;2023-12-04T10:19:13;11.88;;;5.28;;
79668;SDS011;69136;52.614;6.976;2023-12-04T10:22:05;7.55;;;4.50;;
79668;SDS011;69136;52.614;6.976;2023-12-04T10:24:54;10.32;;;5.15;;
79668;SDS011;69136;52.614;6.976;2023-12-04T10:27:38;9.32;;;5.22;;
79668;SDS011;69136;52.614;6.976;2023-12-04T10:33:11;8.05;;;4.32;;
79668;SDS011;69136;52.614;6.976;2023-12-04T10:35:56;8.93;;;4.70;;
79668;SDS011;69136;52.614;6.976;2023-12-04T10:38:40;8.32;;;4.38;;
79668;SDS011;69136;52.614;6.976;2023-12-04T10:41:24;9.13;;;4.63;;
79668;SDS011;69136;52.614;6.976;2023-12-04T10:44:08;11.15;;;5.18;;
79668;SDS011;69136;52.614;6.976;2023-12-04T10:46:53;9.88;;;5.10;;
79668;SDS011;69136;52.614;6.976;2023-12-04T10:49:38;8.93;;;5.13;;
79668;SDS011;69136;52.614;6.976;2023-12-04T10:52:22;8.60;;;5.20;;
79668;SDS011;69136;52.614;6.976;2023-12-04T10:55:07;9.45;;;4.90;;
79668;SDS011;69136;52.614;6.976;2023-12-04T10:57:52;9.70;;;5.15;;
79668;SDS011;69136;52.614;6.976;2023-12-04T11:00:43;10.35;;;5.35;;
79668;SDS011;69136;52.614;6.976;2023-12-04T11:03:31;11.80;;;6.65;;
79668;SDS011;69136;52.614;6.976;2023-12-04T11:06:21;6.55;;;4.57;;
79668;SDS011;69136;52.614;6.976;2023-12-04T11:09:06;10.50;;;5.28;;
79668;SDS011;69136;52.614;6.976;2023-12-04T11:11:51;9.20;;;5.72;;
79668;SDS011;69136;52.614;6.976;2023-12-04T11:14:44;9.57;;;5.28;;
79668;SDS011;69136;52.614;6.976;2023-12-04T11:17:31;9.82;;;5.10;;
79668;SDS011;69136;52.614;6.976;2023-12-04T11:20:18;11.65;;;6.57;;
79668;SDS011;69136;52.614;6.976;2023-12-04T11:23:03;8.35;;;5.20;;
79668;SDS011;69136;52.614;6.976;2023-12-04T11:25:47;10.32;;;5.60;;
79668;SDS011;69136;52.614;6.976;2023-12-04T11:28:32;10.90;;;5.85;;
79668;SDS011;69136;52.614;6.976;2023-12-04T11:31:16;9.55;;;5.13;;
79668;SDS011;69136;52.614;6.976;2023-12-04T11:34:01;9.60;;;5.22;;
79668;SDS011;69136;52.614;6.976;2023-12-04T11:36:47;9.32;;;4.70;;
79668;SDS011;69136;52.614;6.976;2023-12-04T11:39:33;10.40;;;5.35;;
79668;SDS011;69136;52.614;6.976;2023-12-04T11:42:18;9.18;;;5.70;;
79668;SDS011;69136;52.614;6.976;2023-12-04T11:45:06;9.10;;;5.18;;
79668;SDS011;69136;52.614;6.976;2023-12-04T11:47:54;9.82;;;4.72;;
79668;SDS011;69136;52.614;6.976;2023-12-04T11:50:39;9.27;;;4.78;;
79668;SDS011;69136;52.614;6.976;2023-12-04T11:53:24;8.27;;;5.10;;
79668;SDS011;69136;52.614;6.976;2023-12-04T11:56:12;8.80;;;4.82;;
79668;SDS011;69136;52.614;6.976;2023-12-04T11:59:06;9.05;;;5.00;;
79668;SDS011;69136;52.614;6.976;2023-12-04T12:01:53;10.25;;;5.07;;
79668;SDS011;69136;52.614;6.976;2023-12-04T12:04:37;10.15;;;5.13;;
79668;SDS011;69136;52.614;6.976;2023-12-04T12:07:22;9.25;;;4.90;;
79668;SDS011;69136;52.614;6.976;2023-12-04T12:10:06;8.48;;;4.60;;
79668;SDS011;69136;52.614;6.976;2023-12-04T12:12:51;9.55;;;5.13;;
79668;SDS011;69136;52.614;6.976;2023-12-04T12:15:35;10.05;;;4.97;;
79668;SDS011;69136;52.614;6.976;2023-12-04T12:18:21;9.27;;;5.55;;
79668;SDS011;69136;52.614;6.976;2023-12-04T12:21:07;11.40;;;5.32;;
79668;SDS011;69136;52.614;6.976;2023-12-04T12:23:51;8.77;;;4.60;;
79668;SDS011;69136;52.614;6.976;2023-12-04T12:26:35;14.00;;;8.48;;
79668;SDS011;69136;52.614;6.976;2023-12-04T12:29:20;10.48;;;5.22;;
79668;SDS011;69136;52.614;6.976;2023-12-04T12:32:04;8.27;;;4.45;;
79668;SDS011;69136;52.614;6.976;2023-12-04T12:34:48;10.35;;;5.78;;
79668;SDS011;69136;52.614;6.976;2023-12-04T12:37:32;10.10;;;5.68;;
79668;SDS011;69136;52.614;6.976;2023-12-04T12:40:17;9.10;;;5.05;;
79668;SDS011;69136;52.614;6.976;2023-12-04T12:43:05;8.55;;;4.90;;
79668;SDS011;69136;52.614;6.976;2023-12-04T12:45:50;9.43;;;5.07;;
79668;SDS011;69136;52.614;6.976;2023-12-04T12:48:35;8.43;;;5.03;;
79668;SDS011;69136;52.614;6.976;2023-12-04T12:51:18;10.10;;;5.22;;
79668;SDS011;69136;52.614;6.976;2023-12-04T12:54:02;9.25;;;4.88;;
79668;SDS011;69136;52.614;6.976;2023-12-04T12:56:47;9.45;;;5.00;;
79668;SDS011;69136;52.614;6.976;2023-12-04T12:59:31;7.93;;;4.63;;
79668;SDS011;69136;52.614;6.976;2023-12-04T13:05:00;7.70;;;4.45;;
79668;SDS011;69136;52.614;6.976;2023-12-04T13:07:44;9.88;;;5.10;;
79668;SDS011;69136;52.614;6.976;2023-12-04T13:10:28;8.85;;;5.18;;
79668;SDS011;69136;52.614;6.976;2023-12-04T13:13:12;10.48;;;5.13;;
79668;SDS011;69136;52.614;6.976;2023-12-04T13:15:57;10.50;;;4.97;;
79668;SDS011;69136;52.614;6.976;2023-12-04T13:18:41;13.40;;;5.55;;
79668;SDS011;69136;52.614;6.976;2023-12-04T13:21:26;8.82;;;4.68;;
79668;SDS011;69136;52.614;6.976;2023-12-04T13:24:10;7.88;;;4.82;;
79668;SDS011;69136;52.614;6.976;2023-12-04T13:26:55;8.15;;;4.60;;
79668;SDS011;69136;52.614;6.976;2023-12-04T13:29:39;7.97;;;4.60;;
79668;SDS011;69136;52.614;6.976;2023-12-04T13:32:23;9.65;;;4.90;;
79668;SDS011;69136;52.614;6.976;2023-12-04T13:35:07;7.60;;;4.50;;
79668;SDS011;69136;52.614;6.976;2023-12-04T13:37:52;9.57;;;5.60;;
79668;SDS011;69136;52.614;6.976;2023-12-04T13:40:39;9.80;;;5.28;;
79668;SDS011;69136;52.614;6.976;2023-12-04T13:43:24;9.90;;;5.15;;
79668;SDS011;69136;52.614;6.976;2023-12-04T13:46:27;11.75;;;5.43;;
79668;SDS011;69136;52.614;6.976;2023-12-04T13:49:11;9.50;;;5.35;;
79668;SDS011;69136;52.614;6.976;2023-12-04T13:51:55;8.80;;;4.88;;
79668;SDS011;69136;52.614;6.976;2023-12-04T13:57:32;9.02;;;4.78;;
79668;SDS011;69136;52.614;6.976;2023-12-04T14:00:17;8.52;;;4.53;;
79668;SDS011;69136;52.614;6.976;2023-12-04T14:03:02;7.43;;;4.95;;
79668;SDS011;69136;52.614;6.976;2023-12-04T14:05:50;8.20;;;4.70;;
79668;SDS011;69136;52.614;6.976;2023-12-04T14:08:34;8.95;;;4.97;;
79668;SDS011;69136;52.614;6.976;2023-12-04T14:11:19;8.90;;;4.35;;
79668;SDS011;69136;52.614;6.976;2023-12-04T14:14:04;8.93;;;5.30;;
79668;SDS011;69136;52.614;6.976;2023-12-04T14:16:48;8.65;;;4.97;;
79668;SDS011;69136;52.614;6.976;2023-12-04T14:19:32;10.13;;;5.15;;
79668;SDS011;69136;52.614;6.976;2023-12-04T14:22:16;9.90;;;5.03;;
79668;SDS011;69136;52.614;6.976;2023-12-04T14:25:01;10.07;;;5.22;;
79668;SDS011;69136;52.614;6.976;2023-12-04T14:27:45;10.45;;;5.40;;
79668;SDS011;69136;52.614;6.976;2023-12-04T14:30:30;11.75;;;5.25;;
79668;SDS011;69136;52.614;6.976;2023-12-04T14:33:14;12.48;;;5.75;;
79668;SDS011;69136;52.614;6.976;2023-12-04T14:35:59;13.30;;;6.25;;
79668;SDS011;69136;52.614;6.976;2023-12-04T14:38:43;11.30;;;5.85;;
79668;SDS011;69136;52.614;6.976;2023-12-04T14:44:11;8.85;;;4.88;;
79668;SDS011;69136;52.614;6.976;2023-12-04T14:46:55;10.18;;;5.55;;
79668;SDS011;69136;52.614;6.976;2023-12-04T14:49:39;11.95;;;6.75;;
79668;SDS011;69136;52.614;6.976;2023-12-04T14:52:23;10.43;;;5.75;;
79668;SDS011;69136;52.614;6.976;2023-12-04T14:55:08;10.63;;;6.20;;
79668;SDS011;69136;52.614;6.976;2023-12-04T14:57:52;10.13;;;5.50;;
79668;SDS011;69136;52.614;6.976;2023-12-04T15:01:04;11.48;;;5.95;;
79668;SDS011;69136;52.614;6.976;2023-12-04T15:04:14;13.38;;;7.28;;
79668;SDS011;69136;52.614;6.976;2023-12-04T15:07:17;10.23;;;5.28;;
79668;SDS011;69136;52.614;6.976;2023-12-04T15:10:21;10.85;;;5.55;;
79668;SDS011;69136;52.614;6.976;2023-12-04T15:13:05;11.85;;;5.93;;
79668;SDS011;69136;52.614;6.976;2023-12-04T15:15:49;10.38;;;5.53;;
79668;SDS011;69136;52.614;6.976;2023-12-04T15:21:37;12.50;;;5.38;;
79668;SDS011;69136;52.614;6.976;2023-12-04T15:24:21;18.08;;;7.60;;
79668;SDS011;69136;52.614;6.976;2023-12-04T15:27:05;10.18;;;5.30;;
79668;SDS011;69136;52.614;6.976;2023-12-04T15:29:50;9.48;;;5.40;;
79668;SDS011;69136;52.614;6.976;2023-12-04T15:32:34;11.60;;;5.00;;
79668;SDS011;69136;52.614;6.976;2023-12-04T15:35:18;8.88;;;4.68;;
79668;SDS011;69136;52.614;6.976;2023-12-04T15:38:03;9.15;;;4.85;;
79668;SDS011;69136;52.614;6.976;2023-12-04T15:40:47;11.05;;;5.57;;
79668;SDS011;69136;52.614;6.976;2023-12-04T15:43:32;10.88;;;5.43;;
79668;SDS011;69136;52.614;6.976;2023-12-04T15:46:16;10.43;;;5.07;;
79668;SDS011;69136;52.614;6.976;2023-12-04T15:49:03;9.38;;;5.32;;
79668;SDS011;69136;52.614;6.976;2023-12-04T15:51:47;11.55;;;5.30;;
79668;SDS011;69136;52.614;6.976;2023-12-04T15:54:31;11.15;;;5.68;;
79668;SDS011;69136;52.614;6.976;2023-12-04T15:57:16;10.10;;;4.93;;
79668;SDS011;69136;52.614;6.976;2023-12-04T16:00:00;10.57;;;5.97;;
79668;SDS011;69136;52.614;6.976;2023-12-04T16:02:44;11.13;;;5.60;;
79668;SDS011;69136;52.614;6.976;2023-12-04T16:05:28;10.98;;;5.32;;
79668;SDS011;69136;52.614;6.976;2023-12-04T16:08:12;10.88;;;5.32;;
79668;SDS011;69136;52.614;6.976;2023-12-04T16:10:57;10.50;;;5.57;;
79668;SDS011;69136;52.614;6.976;2023-12-04T16:13:41;12.98;;;6.43;;
79668;SDS011;69136;52.614;6.976;2023-12-04T16:16:25;9.23;;;4.88;;
79668;SDS011;69136;52.614;6.976;2023-12-04T16:19:09;9.68;;;5.05;;
79668;SDS011;69136;52.614;6.976;2023-12-04T16:21:54;7.93;;;4.63;;
79668;SDS011;69136;52.614;6.976;2023-12-04T16:24:38;10.60;;;5.53;;
79668;SDS011;69136;52.614;6.976;2023-12-04T16:27:23;10.27;;;5.28;;
79668;SDS011;69136;52.614;6.976;2023-12-04T16:30:07;11.02;;;5.60;;
79668;SDS011;69136;52.614;6.976;2023-12-04T16:32:51;12.30;;;6.05;;
79668;SDS011;69136;52.614;6.976;2023-12-04T16:35:36;11.75;;;5.50;;
79668;SDS011;69136;52.614;6.976;2023-12-04T16:38:20;11.98;;;5.35;;
79668;SDS011;69136;52.614;6.976;2023-12-04T16:41:04;10.30;;;5.68;;